createdAt,value
2023-05-09T00:00:44.542Z,15.9094
2023-05-09T00:01:45.588Z,15.7476
2023-05-09T00:02:46.522Z,15.7296
2023-05-09T00:03:47.561Z,15.7414
2023-05-09T00:04:48.718Z,15.7182
2023-05-09T00:05:49.671Z,15.7219
2023-05-09T00:06:50.720Z,15.7998
2023-05-09T00:07:51.617Z,15.7966
2023-05-09T00:08:52.781Z,15.8362
2023-05-09T00:09:53.739Z,15.9135
2023-05-09T00:10:54.791Z,16.0138
2023-05-09T00:11:55.733Z,16.0570
2023-05-09T00:12:56.852Z,16.0863
2023-05-09T00:13:57.811Z,16.0749
2023-05-09T00:14:58.931Z,16.0818
2023-05-09T00:15:59.941Z,16.1005
2023-05-09T00:17:00.962Z,16.1596
2023-05-09T00:18:01.968Z,16.1780
2023-05-09T00:19:02.992Z,16.2297
2023-05-09T00:20:04.053Z,16.2925
2023-05-09T00:21:05.113Z,16.2902
2023-05-09T00:22:06.065Z,16.2433
2023-05-09T00:23:07.106Z,16.1615
2023-05-09T00:24:08.167Z,16.0879
2023-05-09T00:25:09.216Z,16.0780
2023-05-09T00:26:10.227Z,16.1284
2023-05-09T00:27:11.105Z,16.1289
2023-05-09T00:28:12.120Z,16.0757
2023-05-09T00:29:13.165Z,15.9899
2023-05-09T00:30:14.195Z,15.8666
2023-05-09T00:31:15.260Z,15.8850
2023-05-09T00:32:16.435Z,15.9321
2023-05-09T00:33:17.295Z,16.0123
2023-05-09T00:34:18.291Z,16.1042
2023-05-09T00:35:19.374Z,16.0994
2023-05-09T00:36:20.371Z,16.0311
2023-05-09T00:37:21.400Z,15.9281
2023-05-09T00:38:22.418Z,15.8251
2023-05-09T00:39:23.462Z,15.8707
2023-05-09T00:40:24.503Z,15.8780
2023-05-09T00:41:25.549Z,15.8483
2023-05-09T00:42:26.524Z,15.7964
2023-05-09T00:43:27.579Z,15.7314
2023-05-09T00:44:28.593Z,15.7291
2023-05-09T00:45:29.665Z,15.7476
2023-05-09T00:46:30.804Z,15.6936
2023-05-09T00:47:31.772Z,15.6350
2023-05-09T00:48:32.710Z,15.5430
2023-05-09T00:49:33.749Z,15.5556
2023-05-09T00:50:34.779Z,15.5711
2023-05-09T00:51:35.814Z,15.4457
2023-05-09T00:52:36.831Z,15.4345
2023-05-09T00:53:37.875Z,15.5072
2023-05-09T00:54:38.890Z,15.4734
2023-05-09T00:55:40.007Z,15.4492
2023-05-09T00:56:41.011Z,15.3777
2023-05-09T00:57:41.996Z,15.2512
2023-05-09T00:58:43.049Z,15.1582
2023-05-09T00:59:44.078Z,15.0722
2023-05-09T01:00:45.135Z,15.1341
2023-05-09T01:01:46.224Z,15.2388
2023-05-09T01:02:47.273Z,15.3283
2023-05-09T01:03:48.272Z,15.3183
2023-05-09T01:04:49.226Z,15.2630
2023-05-09T01:05:50.258Z,15.2174
2023-05-09T01:06:51.326Z,15.2099
2023-05-09T01:07:52.313Z,15.2528
2023-05-09T01:08:53.355Z,15.3281
2023-05-09T01:09:54.353Z,15.3284
2023-05-09T01:10:55.436Z,15.3258
2023-05-09T01:11:56.454Z,15.2312
2023-05-09T01:12:57.534Z,15.1889
2023-05-09T01:13:58.474Z,15.1532
2023-05-09T01:14:59.533Z,15.1482
2023-05-09T01:16:00.562Z,15.1796
2023-05-09T01:17:01.613Z,15.3223
2023-05-09T01:18:02.778Z,15.4008
2023-05-09T01:19:03.691Z,15.4590
2023-05-09T01:20:04.718Z,15.4496
2023-05-09T01:21:05.772Z,15.3927
2023-05-09T01:22:06.854Z,15.4780
2023-05-09T01:23:07.868Z,15.5815
2023-05-09T01:24:08.873Z,15.6156
2023-05-09T01:25:09.889Z,15.6829
2023-05-09T01:26:10.917Z,15.6911
2023-05-09T01:27:11.995Z,15.6429
2023-05-09T01:28:12.994Z,15.5662
2023-05-09T01:29:14.090Z,15.4614
2023-05-09T01:30:15.042Z,15.3671
2023-05-09T01:31:16.224Z,15.3303
2023-05-09T01:32:17.209Z,15.2850
2023-05-09T01:33:18.372Z,15.2370
2023-05-09T01:34:19.300Z,15.1576
2023-05-09T01:35:20.312Z,15.0571
2023-05-09T01:36:21.293Z,15.0860
2023-05-09T01:37:22.370Z,15.1601
2023-05-09T01:38:23.441Z,15.1925
2023-05-09T01:39:24.528Z,15.1402
2023-05-09T01:40:25.416Z,15.0688
2023-05-09T01:41:26.477Z,15.0337
2023-05-09T01:42:27.628Z,15.1194
2023-05-09T01:43:28.618Z,15.2500
2023-05-09T01:44:29.542Z,15.3343
2023-05-09T01:45:30.595Z,15.3361
2023-05-09T01:46:31.744Z,15.1448
2023-05-09T01:47:32.757Z,14.9172
2023-05-09T01:48:33.794Z,14.8425
2023-05-09T01:49:34.735Z,14.7942
2023-05-09T01:50:35.752Z,14.7648
2023-05-09T01:51:36.804Z,14.7829
2023-05-09T01:52:37.853Z,14.8233
2023-05-09T01:53:38.933Z,14.8604
2023-05-09T01:54:39.949Z,14.8440
2023-05-09T01:55:40.951Z,14.8022
2023-05-09T01:56:41.935Z,14.9170
2023-05-09T01:57:43.040Z,14.9293
2023-05-09T01:58:44.072Z,14.9847
2023-05-09T01:59:45.128Z,15.0901
2023-05-09T02:00:46.119Z,15.1392
2023-05-09T02:01:47.121Z,15.1517
2023-05-09T02:02:48.206Z,15.1811
2023-05-09T02:03:49.282Z,15.1677
2023-05-09T02:04:50.357Z,15.0684
2023-05-09T02:05:51.226Z,15.0217
2023-05-09T02:06:52.267Z,14.9192
2023-05-09T02:07:53.308Z,14.8622
2023-05-09T02:08:54.352Z,14.9096
2023-05-09T02:09:55.387Z,15.0112
2023-05-09T02:10:56.386Z,15.1204
2023-05-09T02:11:57.385Z,15.0612
2023-05-09T02:12:58.441Z,14.9976
2023-05-09T02:13:59.492Z,14.9599
2023-05-09T02:15:00.566Z,14.9351
2023-05-09T02:16:01.496Z,14.8896
2023-05-09T02:17:02.646Z,14.8513
2023-05-09T02:18:03.603Z,14.8337
2023-05-09T02:19:04.727Z,14.8015
2023-05-09T02:20:05.689Z,14.7498
2023-05-09T02:21:06.687Z,14.7508
2023-05-09T02:22:07.690Z,14.8241
2023-05-09T02:23:08.730Z,14.9041
2023-05-09T02:24:09.831Z,14.9204
2023-05-09T02:25:10.829Z,14.8949
2023-05-09T02:26:11.836Z,14.9469
2023-05-09T02:27:12.931Z,15.0168
2023-05-09T02:28:13.896Z,14.9728
2023-05-09T02:29:14.960Z,14.9008
2023-05-09T02:30:16.070Z,14.9309
2023-05-09T02:31:16.971Z,15.0141
2023-05-09T02:32:18.031Z,15.0312
2023-05-09T02:33:19.024Z,15.0813
2023-05-09T02:34:20.182Z,14.9844
2023-05-09T02:35:21.130Z,14.9366
2023-05-09T02:36:22.232Z,14.9257
2023-05-09T02:37:23.131Z,14.9211
2023-05-09T02:38:24.194Z,14.8682
2023-05-09T02:39:25.269Z,14.8135
2023-05-09T02:40:26.339Z,14.9131
2023-05-09T02:41:27.291Z,15.0454
2023-05-09T02:42:28.309Z,15.1325
2023-05-09T02:43:29.329Z,15.2191
2023-05-09T02:44:30.428Z,15.2765
2023-05-09T02:45:31.452Z,15.2405
2023-05-09T02:46:32.644Z,15.1387
2023-05-09T02:47:33.616Z,15.0169
2023-05-09T02:48:34.490Z,14.9309
2023-05-09T02:49:35.666Z,14.8387
2023-05-09T02:50:36.672Z,14.8612
2023-05-09T02:51:37.584Z,14.8997
2023-05-09T02:52:38.669Z,14.8887
2023-05-09T02:53:39.666Z,14.9318
2023-05-09T02:54:40.844Z,14.9203
2023-05-09T02:55:41.823Z,14.9828
2023-05-09T02:56:42.751Z,15.0273
2023-05-09T02:57:43.771Z,15.0646
2023-05-09T02:58:44.812Z,15.1368
2023-05-09T02:59:45.904Z,15.1097
2023-05-09T03:00:46.959Z,15.1124
2023-05-09T03:01:47.933Z,15.1550
2023-05-09T03:02:49.020Z,15.1806
2023-05-09T03:03:49.989Z,15.1566
2023-05-09T03:04:51.157Z,15.1329
2023-05-09T03:05:52.073Z,15.1400
2023-05-09T03:06:53.066Z,15.1237
2023-05-09T03:07:54.104Z,15.0799
2023-05-09T03:08:55.092Z,15.0105
2023-05-09T03:09:56.229Z,14.9237
2023-05-09T03:10:57.264Z,14.8312
2023-05-09T03:11:58.217Z,14.8000
2023-05-09T03:12:59.250Z,14.8267
2023-05-09T03:14:00.283Z,14.8578
2023-05-09T03:15:01.369Z,14.7536
2023-05-09T03:16:02.437Z,14.7504
2023-05-09T03:17:03.344Z,14.7405
2023-05-09T03:18:04.510Z,14.8089
2023-05-09T03:19:05.415Z,14.9350
2023-05-09T03:20:06.549Z,15.0058
2023-05-09T03:21:07.616Z,14.9029
2023-05-09T03:22:08.493Z,14.7707
2023-05-09T03:23:09.507Z,14.7208
2023-05-09T03:24:10.634Z,14.7626
2023-05-09T03:25:11.764Z,14.7747
2023-05-09T03:26:12.665Z,14.8423
2023-05-09T03:27:13.618Z,14.9460
2023-05-09T03:28:14.666Z,15.0341
2023-05-09T03:29:15.669Z,15.1167
2023-05-09T03:30:16.806Z,15.1871
2023-05-09T03:31:17.797Z,15.0854
2023-05-09T03:32:18.789Z,14.9695
2023-05-09T03:33:19.772Z,14.9269
2023-05-09T03:34:20.836Z,14.9176
2023-05-09T03:35:22.034Z,14.9423
2023-05-09T03:36:22.934Z,14.9593
2023-05-09T03:37:25.532Z,14.9564
2023-05-09T03:38:24.975Z,14.8060
2023-05-09T03:39:26.067Z,14.5352
2023-05-09T03:40:27.106Z,14.5374
2023-05-09T03:41:28.147Z,14.7165
2023-05-09T03:42:29.186Z,14.7976
2023-05-09T03:43:30.096Z,14.7881
2023-05-09T03:44:31.153Z,14.7276
2023-05-09T03:45:32.241Z,14.7046
2023-05-09T03:46:33.295Z,14.5262
2023-05-09T03:47:34.313Z,14.3948
2023-05-09T03:48:35.266Z,14.2579
2023-05-09T03:49:36.379Z,14.2393
2023-05-09T03:50:37.480Z,14.2945
2023-05-09T03:51:39.868Z,14.3664
2023-05-09T03:52:39.402Z,14.5067
2023-05-09T03:53:40.431Z,14.6648
2023-05-09T03:54:41.433Z,14.7734
2023-05-09T03:55:42.546Z,14.7301
2023-05-09T03:56:43.601Z,14.7176
2023-05-09T03:57:44.519Z,14.7897
2023-05-09T03:58:45.548Z,14.8457
2023-05-09T03:59:46.630Z,14.8829
2023-05-09T04:00:47.635Z,14.9259
2023-05-09T04:01:48.713Z,14.8323
2023-05-09T04:02:49.727Z,14.7795
2023-05-09T04:03:50.775Z,14.7554
2023-05-09T04:04:51.732Z,14.6664
2023-05-09T04:05:52.841Z,14.6390
2023-05-09T04:06:53.882Z,14.7138
2023-05-09T04:07:54.777Z,14.7995
2023-05-09T04:08:55.898Z,14.7856
2023-05-09T04:09:56.921Z,14.7159
2023-05-09T04:10:57.937Z,14.6680
2023-05-09T04:11:58.933Z,14.6892
2023-05-09T04:12:59.974Z,14.7236
2023-05-09T04:14:00.958Z,14.8190
2023-05-09T04:15:01.987Z,14.8932
2023-05-09T04:16:03.050Z,14.7683
2023-05-09T04:17:04.186Z,14.6463
2023-05-09T04:18:05.163Z,14.6800
2023-05-09T04:19:06.100Z,14.7599
2023-05-09T04:20:07.147Z,14.8494
2023-05-09T04:21:08.298Z,15.0115
2023-05-09T04:22:09.282Z,15.1917
2023-05-09T04:23:10.224Z,15.2559
2023-05-09T04:24:11.257Z,15.1962
2023-05-09T04:25:12.379Z,15.1622
2023-05-09T04:26:13.361Z,15.0731
2023-05-09T04:27:14.390Z,14.9118
2023-05-09T04:28:15.370Z,14.6651
2023-05-09T04:29:16.344Z,14.5260
2023-05-09T04:30:17.490Z,14.4686
2023-05-09T04:31:18.572Z,14.4771
2023-05-09T04:32:19.580Z,14.5435
2023-05-09T04:33:20.509Z,14.6024
2023-05-09T04:34:21.561Z,14.6928
2023-05-09T04:35:22.907Z,14.6896
2023-05-09T04:36:23.693Z,14.6244
2023-05-09T04:37:24.638Z,14.6016
2023-05-09T04:38:25.651Z,14.6964
2023-05-09T04:39:26.656Z,14.8408
2023-05-09T04:40:27.716Z,14.7952
2023-05-09T04:41:28.802Z,14.7308
2023-05-09T04:42:29.830Z,14.6717
2023-05-09T04:43:30.831Z,14.6065
2023-05-09T04:44:31.829Z,14.7052
2023-05-09T04:45:32.820Z,14.8186
2023-05-09T04:46:34.081Z,14.9790
2023-05-09T04:47:35.053Z,15.0298
2023-05-09T04:48:35.911Z,15.0882
2023-05-09T04:49:37.008Z,15.1383
2023-05-09T04:50:37.967Z,15.1387
2023-05-09T04:51:39.112Z,15.2517
2023-05-09T04:52:40.145Z,15.4015
2023-05-09T04:53:41.058Z,15.3829
2023-05-09T04:54:42.086Z,15.2292
2023-05-09T04:55:43.142Z,14.9694
2023-05-09T04:56:44.202Z,14.9710
2023-05-09T04:57:45.221Z,15.0260
2023-05-09T04:58:46.185Z,15.1842
2023-05-09T04:59:47.268Z,15.1033
2023-05-09T05:00:48.222Z,14.8540
2023-05-09T05:01:49.381Z,14.7772
2023-05-09T05:02:50.392Z,14.7468
2023-05-09T05:03:51.422Z,14.7424
2023-05-09T05:04:56.017Z,14.6059
2023-05-09T05:05:53.498Z,14.5397
2023-05-09T05:06:54.546Z,14.5950
2023-05-09T05:07:55.533Z,14.7391
2023-05-09T05:08:56.478Z,14.9448
2023-05-09T05:09:57.520Z,15.2003
2023-05-09T05:10:58.633Z,15.3646
2023-05-09T05:12:02.844Z,15.4924
2023-05-09T05:13:00.754Z,15.6133
2023-05-09T05:14:01.613Z,15.6643
2023-05-09T05:15:02.753Z,15.6888
2023-05-09T05:16:03.757Z,15.7974
2023-05-09T05:17:04.788Z,15.7001
2023-05-09T05:18:05.861Z,15.6681
2023-05-09T05:19:06.958Z,15.6767
2023-05-09T05:20:07.857Z,15.6102
2023-05-09T05:21:08.917Z,15.5383
2023-05-09T05:22:10.067Z,15.5849
2023-05-09T05:23:11.021Z,15.4869
2023-05-09T05:24:11.973Z,15.3990
2023-05-09T05:25:13.188Z,15.3888
2023-05-09T05:26:14.096Z,15.3829
2023-05-09T05:27:15.163Z,15.3580
2023-05-09T05:28:16.197Z,15.3669
2023-05-09T05:29:17.136Z,15.4535
2023-05-09T05:30:18.145Z,15.6141
2023-05-09T05:31:19.235Z,15.6699
2023-05-09T05:32:20.219Z,15.6784
2023-05-09T05:33:21.273Z,15.6771
2023-05-09T05:34:22.272Z,15.5939
2023-05-09T05:35:23.373Z,15.6834
2023-05-09T05:36:24.384Z,15.7103
2023-05-09T05:37:25.440Z,15.6934
2023-05-09T05:38:26.434Z,15.6363
2023-05-09T05:39:27.420Z,15.5657
2023-05-09T05:40:28.453Z,15.4836
2023-05-09T05:41:29.459Z,15.6041
2023-05-09T05:42:30.592Z,15.7446
2023-05-09T05:43:31.569Z,15.9638
2023-05-09T05:44:32.551Z,16.1413
2023-05-09T05:45:33.578Z,16.1140
2023-05-09T05:46:34.607Z,16.1147
2023-05-09T05:47:35.707Z,16.0228
2023-05-09T05:48:36.674Z,15.9186
2023-05-09T05:49:37.651Z,15.8636
2023-05-09T05:50:38.771Z,15.7246
2023-05-09T05:51:39.737Z,15.4859
2023-05-09T05:52:40.859Z,15.3681
2023-05-09T05:53:41.851Z,15.3342
2023-05-09T05:54:42.832Z,15.3660
2023-05-09T05:55:43.857Z,15.4149
2023-05-09T05:56:44.951Z,15.4308
2023-05-09T05:57:45.992Z,15.4690
2023-05-09T05:58:46.992Z,15.4913
2023-05-09T05:59:47.950Z,15.4614
2023-05-09T06:00:48.986Z,15.6237
2023-05-09T06:01:50.005Z,15.6801
2023-05-09T06:02:51.168Z,15.3288
2023-05-09T06:03:52.162Z,15.0579
2023-05-09T06:04:54.654Z,15.0581
2023-05-09T06:05:54.109Z,15.0634
2023-05-09T06:06:55.130Z,14.9043
2023-05-09T06:07:56.272Z,15.1724
2023-05-09T06:08:57.233Z,15.4024
2023-05-09T06:09:58.247Z,15.5927
2023-05-09T06:10:59.252Z,15.5830
2023-05-09T06:12:00.356Z,15.5608
2023-05-09T06:13:01.435Z,15.4820
2023-05-09T06:14:02.452Z,15.3921
2023-05-09T06:15:03.338Z,15.3812
2023-05-09T06:16:18.653Z,15.4398
2023-05-09T06:17:05.465Z,15.5356
2023-05-09T06:18:06.584Z,15.5616
2023-05-09T06:19:07.510Z,15.5143
2023-05-09T06:20:08.495Z,15.4161
2023-05-09T06:21:09.493Z,15.4688
2023-05-09T06:22:10.548Z,15.5586
2023-05-09T06:23:11.692Z,15.6392
2023-05-09T06:24:23.538Z,15.7530
2023-05-09T06:25:13.862Z,15.5798
2023-05-09T06:26:14.813Z,15.5218
2023-05-09T06:27:15.709Z,15.5030
2023-05-09T06:28:16.802Z,15.4693
2023-05-09T06:29:17.855Z,15.5002
2023-05-09T06:30:26.282Z,15.5310
2023-05-09T06:31:19.871Z,15.6080
2023-05-09T06:32:20.837Z,15.4178
2023-05-09T06:33:21.959Z,15.3635
2023-05-09T06:34:22.958Z,15.3559
2023-05-09T06:35:23.966Z,15.3005
2023-05-09T06:36:25.000Z,15.2449
2023-05-09T06:37:26.016Z,15.2762
2023-05-09T06:38:27.126Z,15.3479
2023-05-09T06:39:28.092Z,15.4791
2023-05-09T06:40:29.154Z,15.6293
2023-05-09T06:41:30.140Z,15.6547
2023-05-09T06:42:31.140Z,15.7908
2023-05-09T06:43:32.213Z,15.8782
2023-05-09T06:44:33.266Z,15.9692
2023-05-09T06:45:34.258Z,16.0706
2023-05-09T06:46:35.367Z,16.2379
2023-05-09T06:47:36.316Z,16.3893
2023-05-09T06:48:37.323Z,16.3815
2023-05-09T06:49:38.446Z,16.3781
2023-05-09T06:50:39.429Z,16.3436
2023-05-09T06:51:40.376Z,16.3705
2023-05-09T06:52:41.414Z,16.4527
2023-05-09T06:53:42.495Z,16.5143
2023-05-09T06:54:43.517Z,16.5380
2023-05-09T06:55:44.515Z,16.5890
2023-05-09T06:56:45.533Z,16.7403
2023-05-09T06:57:46.653Z,16.8422
2023-05-09T06:58:47.699Z,16.8801
2023-05-09T06:59:48.679Z,16.9070
2023-05-09T07:00:49.611Z,16.9334
2023-05-09T07:01:50.668Z,16.9770
2023-05-09T07:02:51.715Z,16.7848
2023-05-09T07:03:52.812Z,16.6345
2023-05-09T07:04:53.868Z,16.5875
2023-05-09T07:05:54.764Z,16.6941
2023-05-09T07:06:55.804Z,16.9542
2023-05-09T07:07:56.837Z,17.0430
2023-05-09T07:08:57.982Z,17.0746
2023-05-09T07:10:10.316Z,17.1321
2023-05-09T07:10:59.923Z,17.1522
2023-05-09T07:12:01.008Z,16.9980
2023-05-09T07:13:02.007Z,16.8680
2023-05-09T07:14:03.077Z,16.8439
2023-05-09T07:15:04.117Z,17.2631
2023-05-09T07:16:05.127Z,17.4431
2023-05-09T07:17:21.982Z,17.5322
2023-05-09T07:18:07.140Z,17.1780
2023-05-09T07:19:08.228Z,16.9067
2023-05-09T07:20:09.210Z,17.0243
2023-05-09T07:21:10.292Z,17.1036
2023-05-09T07:22:11.242Z,17.2063
2023-05-09T07:23:12.262Z,17.5836
2023-05-09T07:24:13.429Z,17.8392
2023-05-09T07:25:14.600Z,18.0361
2023-05-09T07:26:15.373Z,18.0785
2023-05-09T07:27:16.376Z,18.1151
2023-05-09T07:28:17.408Z,18.1165
2023-05-09T07:29:18.498Z,18.2339
2023-05-09T07:30:19.503Z,18.4477
2023-05-09T07:31:20.552Z,18.5079
2023-05-09T07:32:21.540Z,18.6106
2023-05-09T07:33:22.585Z,18.5594
2023-05-09T07:34:23.679Z,18.5785
2023-05-09T07:35:24.642Z,18.6309
2023-05-09T07:36:25.679Z,18.6444
2023-05-09T07:37:26.743Z,18.4875
2023-05-09T07:38:27.686Z,18.6229
2023-05-09T07:39:28.874Z,18.7861
2023-05-09T07:40:29.896Z,18.8855
2023-05-09T07:41:30.789Z,19.0266
2023-05-09T07:42:31.803Z,18.9742
2023-05-09T07:43:32.844Z,18.8113
2023-05-09T07:44:33.895Z,18.6310
2023-05-09T07:45:35.062Z,18.5365
2023-05-09T07:46:35.987Z,18.3979
2023-05-09T07:47:37.042Z,18.1756
2023-05-09T07:48:38.015Z,18.1585
2023-05-09T07:49:39.037Z,18.1370
2023-05-09T07:50:40.114Z,17.9903
2023-05-09T07:51:41.035Z,17.9385
2023-05-09T07:52:42.118Z,17.9040
2023-05-09T07:53:43.122Z,17.7841
2023-05-09T07:54:44.335Z,17.8147
2023-05-09T07:55:45.209Z,18.0055
2023-05-09T07:56:46.159Z,18.2694
2023-05-09T07:57:47.241Z,18.3095
2023-05-09T07:58:48.211Z,18.3825
2023-05-09T07:59:49.339Z,18.4663
2023-05-09T08:00:50.368Z,18.6126
2023-05-09T08:01:51.404Z,18.7395
2023-05-09T08:02:52.449Z,18.6815
2023-05-09T08:03:53.527Z,18.7337
2023-05-09T08:04:54.509Z,18.5378
2023-05-09T08:05:55.511Z,18.4910
2023-05-09T08:06:56.492Z,18.3519
2023-05-09T08:07:57.513Z,18.2148
2023-05-09T08:08:58.593Z,18.0694
2023-05-09T08:09:59.682Z,18.0312
2023-05-09T08:11:00.705Z,18.0861
2023-05-09T08:12:01.648Z,17.9248
2023-05-09T08:13:02.756Z,17.8556
2023-05-09T08:14:03.734Z,17.9106
2023-05-09T08:15:04.762Z,17.8482
2023-05-09T08:16:05.888Z,17.7248
2023-05-09T08:17:06.856Z,17.7423
2023-05-09T08:18:07.874Z,17.8049
2023-05-09T08:19:08.813Z,17.8356
2023-05-09T08:20:09.909Z,17.7731
2023-05-09T08:21:10.961Z,17.6078
2023-05-09T08:22:11.999Z,17.5032
2023-05-09T08:23:12.980Z,17.4916
2023-05-09T08:24:13.961Z,17.6071
2023-05-09T08:25:15.318Z,17.7476
2023-05-09T08:26:16.119Z,17.7713
2023-05-09T08:27:17.074Z,17.7220
2023-05-09T08:28:18.217Z,17.7024
2023-05-09T08:29:19.413Z,17.6459
2023-05-09T08:30:20.191Z,17.6753
2023-05-09T08:31:21.291Z,17.5174
2023-05-09T08:32:22.207Z,17.4522
2023-05-09T08:33:23.243Z,17.4158
2023-05-09T08:34:24.343Z,17.3696
2023-05-09T08:35:25.420Z,17.3819
2023-05-09T08:36:26.362Z,17.4901
2023-05-09T08:37:27.404Z,17.4639
2023-05-09T08:38:28.453Z,17.4085
2023-05-09T08:39:29.441Z,17.5637
2023-05-09T08:40:30.533Z,17.8396
2023-05-09T08:41:31.586Z,17.9918
2023-05-09T08:42:32.534Z,18.1500
2023-05-09T08:43:33.567Z,18.2035
2023-05-09T08:44:34.554Z,18.2108
2023-05-09T08:45:35.653Z,18.0915
2023-05-09T08:46:36.873Z,17.9268
2023-05-09T08:47:37.703Z,18.1535
2023-05-09T08:48:38.720Z,18.2727
2023-05-09T08:49:39.719Z,18.2735
2023-05-09T08:50:40.803Z,18.1434
2023-05-09T08:51:41.837Z,17.8766
2023-05-09T08:52:42.794Z,17.7624
2023-05-09T08:53:43.815Z,17.7308
2023-05-09T08:54:44.858Z,17.5291
2023-05-09T08:55:45.988Z,17.5661
2023-05-09T08:56:46.989Z,17.5819
2023-05-09T08:57:47.968Z,17.4828
2023-05-09T08:58:49.065Z,17.5810
2023-05-09T08:59:50.066Z,17.6380
2023-05-09T09:00:51.163Z,17.8158
2023-05-09T09:01:52.157Z,17.9154
2023-05-09T09:02:53.311Z,17.9695
2023-05-09T09:03:54.187Z,17.8653
2023-05-09T09:04:55.108Z,17.6584
2023-05-09T09:05:56.252Z,17.5287
2023-05-09T09:06:57.205Z,17.4312
2023-05-09T09:07:58.216Z,17.5969
2023-05-09T09:08:59.263Z,17.6377
2023-05-09T09:10:00.221Z,17.4378
2023-05-09T09:11:01.345Z,17.5276
2023-05-09T09:12:02.299Z,17.7534
2023-05-09T09:13:03.402Z,17.7990
2023-05-09T09:14:04.374Z,17.8603
2023-05-09T09:15:05.391Z,17.8928
2023-05-09T09:16:06.446Z,17.8661
2023-05-09T09:17:07.478Z,17.8330
2023-05-09T09:18:08.594Z,17.6963
2023-05-09T09:19:09.566Z,17.6236
2023-05-09T09:20:10.573Z,17.5827
2023-05-09T09:21:11.612Z,17.6989
2023-05-09T09:22:12.674Z,17.8424
2023-05-09T09:23:13.687Z,17.8731
2023-05-09T09:24:14.685Z,17.9610
2023-05-09T09:25:15.762Z,18.0808
2023-05-09T09:26:16.810Z,18.1599
2023-05-09T09:27:17.837Z,18.1513
2023-05-09T09:28:18.879Z,18.2325
2023-05-09T09:29:19.850Z,18.3137
2023-05-09T09:30:20.893Z,18.3145
2023-05-09T09:31:21.975Z,18.2430
2023-05-09T09:32:22.982Z,18.4140
2023-05-09T09:33:24.016Z,18.4573
2023-05-09T09:34:25.014Z,18.4391
2023-05-09T09:35:26.037Z,18.4359
2023-05-09T09:36:27.073Z,18.3987
2023-05-09T09:37:28.127Z,18.3668
2023-05-09T09:38:29.099Z,18.3550
2023-05-09T09:39:30.147Z,18.4176
2023-05-09T09:40:31.154Z,18.3984
2023-05-09T09:41:32.240Z,18.4441
2023-05-09T09:42:33.248Z,18.4101
2023-05-09T09:43:34.256Z,18.3390
2023-05-09T09:44:35.270Z,18.5283
2023-05-09T09:45:36.399Z,18.5827
2023-05-09T09:46:37.465Z,18.6029
2023-05-09T09:47:38.395Z,18.6437
2023-05-09T09:48:39.433Z,18.9915
2023-05-09T09:49:40.410Z,19.1534
2023-05-09T09:50:41.486Z,19.1543
2023-05-09T09:51:42.456Z,19.1307
2023-05-09T09:52:43.526Z,19.1249
2023-05-09T09:53:44.515Z,19.1949
2023-05-09T09:54:45.591Z,19.3182
2023-05-09T09:55:46.588Z,19.3902
2023-05-09T09:56:47.713Z,19.4829
2023-05-09T09:57:48.599Z,19.4572
2023-05-09T09:58:49.720Z,19.4513
2023-05-09T09:59:50.719Z,19.3052
2023-05-09T10:00:51.755Z,19.1202
2023-05-09T10:01:52.751Z,19.1364
2023-05-09T10:02:53.821Z,19.2939
2023-05-09T10:03:54.943Z,19.4468
2023-05-09T10:04:55.892Z,19.5457
2023-05-09T10:05:56.880Z,19.6848
2023-05-09T10:06:57.941Z,19.7614
2023-05-09T10:07:58.932Z,19.7053
2023-05-09T10:08:59.971Z,19.8074
2023-05-09T10:10:01.038Z,19.7419
2023-05-09T10:11:02.074Z,19.5311
2023-05-09T10:12:03.146Z,19.2787
2023-05-09T10:13:04.143Z,19.0886
2023-05-09T10:14:05.086Z,19.0078
2023-05-09T10:15:06.191Z,19.0297
2023-05-09T10:16:07.281Z,19.1590
2023-05-09T10:17:08.368Z,19.2811
2023-05-09T10:18:09.450Z,19.4015
2023-05-09T10:19:10.312Z,19.5369
2023-05-09T10:20:11.313Z,19.6082
2023-05-09T10:21:12.385Z,19.7080
2023-05-09T10:22:13.422Z,19.9438
2023-05-09T10:23:14.417Z,19.9295
2023-05-09T10:24:15.408Z,19.9101
2023-05-09T10:25:16.628Z,20.0155
2023-05-09T10:26:17.504Z,20.1601
2023-05-09T10:27:18.587Z,20.2490
2023-05-09T10:28:19.616Z,20.1637
2023-05-09T10:29:20.572Z,20.3072
2023-05-09T10:30:21.603Z,20.1812
2023-05-09T10:31:22.731Z,20.2157
2023-05-09T10:32:23.680Z,20.1379
2023-05-09T10:33:24.748Z,19.9478
2023-05-09T10:34:25.739Z,19.7782
2023-05-09T10:35:26.768Z,19.7914
2023-05-09T10:36:27.800Z,19.8702
2023-05-09T10:37:28.850Z,19.9937
2023-05-09T10:38:29.903Z,19.9421
2023-05-09T10:39:30.871Z,19.9450
2023-05-09T10:40:31.945Z,19.8598
2023-05-09T10:41:32.956Z,19.9039
2023-05-09T10:42:34.066Z,20.0683
2023-05-09T10:43:36.674Z,19.8861
2023-05-09T10:44:36.077Z,19.6888
2023-05-09T10:45:37.066Z,19.6100
2023-05-09T10:46:38.154Z,19.6492
2023-05-09T10:47:39.190Z,19.6229
2023-05-09T10:48:40.228Z,19.6163
2023-05-09T10:49:41.192Z,19.7327
2023-05-09T10:50:42.218Z,19.7383
2023-05-09T10:51:43.253Z,19.6212
2023-05-09T10:52:44.287Z,19.5483
2023-05-09T10:53:45.327Z,19.6315
2023-05-09T10:54:46.426Z,19.8520
2023-05-09T10:55:47.518Z,19.9261
2023-05-09T10:56:48.434Z,20.0521
2023-05-09T10:57:49.635Z,20.2138
2023-05-09T10:58:50.663Z,20.2134
2023-05-09T10:59:51.565Z,20.2551
2023-05-09T11:00:52.998Z,20.3558
2023-05-09T11:01:53.659Z,20.2426
2023-05-09T11:02:54.679Z,20.2798
2023-05-09T11:03:55.795Z,20.2476
2023-05-09T11:04:56.776Z,19.9679
2023-05-09T11:05:57.723Z,19.8357
2023-05-09T11:06:58.790Z,19.6727
2023-05-09T11:07:59.827Z,19.6647
2023-05-09T11:09:00.829Z,19.7494
2023-05-09T11:10:01.858Z,19.8532
2023-05-09T11:11:02.896Z,19.9993
2023-05-09T11:12:03.887Z,20.0107
2023-05-09T11:13:05.132Z,19.9365
2023-05-09T11:14:06.014Z,20.0357
2023-05-09T11:15:06.993Z,20.0674
2023-05-09T11:16:08.011Z,20.0902
2023-05-09T11:17:09.018Z,20.0319
2023-05-09T11:18:10.167Z,20.2652
2023-05-09T11:19:11.151Z,20.4417
2023-05-09T11:20:12.239Z,20.3882
2023-05-09T11:21:13.156Z,20.3952
2023-05-09T11:22:14.207Z,20.5326
2023-05-09T11:23:15.277Z,20.6969
2023-05-09T11:24:16.254Z,20.8852
2023-05-09T11:25:17.481Z,20.8940
2023-05-09T11:26:18.310Z,20.7040
2023-05-09T11:27:19.330Z,20.6672
2023-05-09T11:28:20.374Z,20.5994
2023-05-09T11:29:21.471Z,20.4737
2023-05-09T11:30:22.479Z,20.4503
2023-05-09T11:31:23.507Z,20.4059
2023-05-09T11:32:24.520Z,20.3923
2023-05-09T11:33:25.520Z,20.4385
2023-05-09T11:34:26.537Z,20.5475
2023-05-09T11:35:27.542Z,20.5180
2023-05-09T11:36:28.564Z,20.3800
2023-05-09T11:37:29.553Z,20.2986
2023-05-09T11:38:30.659Z,20.1491
2023-05-09T11:39:31.699Z,20.0186
2023-05-09T11:40:32.736Z,19.9682
2023-05-09T11:41:33.736Z,19.9233
2023-05-09T11:42:34.787Z,19.9636
2023-05-09T11:43:35.848Z,20.0635
2023-05-09T11:44:36.878Z,20.0990
2023-05-09T11:45:37.802Z,20.2156
2023-05-09T11:46:38.849Z,20.3921
2023-05-09T11:47:39.864Z,20.3552
2023-05-09T11:48:40.926Z,20.5737
2023-05-09T11:49:41.956Z,20.4104
2023-05-09T11:50:43.018Z,20.1225
2023-05-09T11:51:43.963Z,20.0677
2023-05-09T11:52:45.024Z,20.1556
2023-05-09T11:53:46.124Z,20.2258
2023-05-09T11:54:47.121Z,20.2033
2023-05-09T11:55:48.071Z,20.2179
2023-05-09T11:56:49.147Z,20.3267
2023-05-09T11:57:50.133Z,20.4264
2023-05-09T11:58:51.365Z,20.4865
2023-05-09T11:59:52.228Z,20.4892
2023-05-09T12:00:53.227Z,20.6705
2023-05-09T12:01:54.280Z,20.7741
2023-05-09T12:02:55.314Z,20.8351
2023-05-09T12:03:56.466Z,20.9306
2023-05-09T12:04:57.409Z,20.9960
2023-05-09T12:05:58.303Z,21.0948
2023-05-09T12:06:59.418Z,20.9683
2023-05-09T12:08:00.386Z,20.8458
2023-05-09T12:09:01.466Z,20.7778
2023-05-09T12:10:02.501Z,20.8517
2023-05-09T12:11:03.478Z,20.9736
2023-05-09T12:12:04.597Z,20.8745
2023-05-09T12:13:05.692Z,20.8651
2023-05-09T12:14:06.725Z,21.0146
2023-05-09T12:15:07.658Z,21.1124
2023-05-09T12:16:08.679Z,21.0028
2023-05-09T12:17:09.686Z,20.9256
2023-05-09T12:18:10.721Z,20.8864